sensor_id;sensor_type;location;lat;lon;timestamp;P1;durP1;ratioP1;P2;durP2;ratioP2
19747;SDS011;10032;51.386;12.516;2023-11-22T00:01:11;6.00;;;3.43;;
19747;SDS011;10032;51.386;12.516;2023-11-22T00:03:37;4.80;;;3.90;;
19747;SDS011;10032;51.386;12.516;2023-11-22T00:06:03;5.40;;;3.40;;
19747;SDS011;10032;51.386;12.516;2023-11-22T00:08:28;5.10;;;4.03;;
19747;SDS011;10032;51.386;12.516;2023-11-22T00:10:54;4.23;;;3.07;;
19747;SDS011;10032;51.386;12.516;2023-11-22T00:13:20;4.03;;;2.93;;
19747;SDS011;10032;51.386;12.516;2023-11-22T00:15:45;4.77;;;3.53;;
19747;SDS011;10032;51.386;12.516;2023-11-22T00:18:10;5.67;;;4.13;;
19747;SDS011;10032;51.386;12.516;2023-11-22T00:20:36;4.17;;;3.23;;
19747;SDS011;10032;51.386;12.516;2023-11-22T00:23:01;5.00;;;3.30;;
19747;SDS011;10032;51.386;12.516;2023-11-22T00:25:28;3.53;;;2.67;;
19747;SDS011;10032;51.386;12.516;2023-11-22T00:27:53;4.23;;;3.57;;
19747;SDS011;10032;51.386;12.516;2023-11-22T00:30:20;6.73;;;3.50;;
19747;SDS011;10032;51.386;12.516;2023-11-22T00:32:45;3.10;;;2.47;;
19747;SDS011;10032;51.386;12.516;2023-11-22T00:35:11;3.37;;;2.80;;
19747;SDS011;10032;51.386;12.516;2023-11-22T00:37:37;3.90;;;2.87;;
19747;SDS011;10032;51.386;12.516;2023-11-22T00:40:03;4.50;;;2.87;;
19747;SDS011;10032;51.386;12.516;2023-11-22T00:42:46;3.63;;;2.97;;
19747;SDS011;10032;51.386;12.516;2023-11-22T00:45:12;5.50;;;3.67;;
19747;SDS011;10032;51.386;12.516;2023-11-22T00:47:37;4.47;;;2.73;;
19747;SDS011;10032;51.386;12.516;2023-11-22T00:50:04;5.40;;;3.43;;
19747;SDS011;10032;51.386;12.516;2023-11-22T00:52:32;5.33;;;3.20;;
19747;SDS011;10032;51.386;12.516;2023-11-22T00:54:58;4.30;;;3.57;;
19747;SDS011;10032;51.386;12.516;2023-11-22T00:57:23;4.53;;;3.70;;
19747;SDS011;10032;51.386;12.516;2023-11-22T00:59:49;5.47;;;3.60;;
19747;SDS011;10032;51.386;12.516;2023-11-22T01:02:15;5.60;;;3.40;;
19747;SDS011;10032;51.386;12.516;2023-11-22T01:04:41;5.87;;;3.57;;
19747;SDS011;10032;51.386;12.516;2023-11-22T01:07:06;3.90;;;3.00;;
19747;SDS011;10032;51.386;12.516;2023-11-22T01:09:32;3.87;;;2.70;;
19747;SDS011;10032;51.386;12.516;2023-11-22T01:11:58;6.63;;;3.90;;
19747;SDS011;10032;51.386;12.516;2023-11-22T01:14:24;3.87;;;2.70;;
19747;SDS011;10032;51.386;12.516;2023-11-22T01:16:51;5.50;;;3.77;;
19747;SDS011;10032;51.386;12.516;2023-11-22T01:19:16;3.83;;;3.37;;
19747;SDS011;10032;51.386;12.516;2023-11-22T01:21:42;4.30;;;3.70;;
19747;SDS011;10032;51.386;12.516;2023-11-22T01:24:07;4.50;;;3.60;;
19747;SDS011;10032;51.386;12.516;2023-11-22T01:26:33;5.47;;;3.50;;
19747;SDS011;10032;51.386;12.516;2023-11-22T01:28:58;6.70;;;3.33;;
19747;SDS011;10032;51.386;12.516;2023-11-22T01:31:25;5.03;;;3.47;;
19747;SDS011;10032;51.386;12.516;2023-11-22T01:33:52;4.03;;;3.20;;
19747;SDS011;10032;51.386;12.516;2023-11-22T01:36:18;4.63;;;3.63;;
19747;SDS011;10032;51.386;12.516;2023-11-22T01:38:44;3.77;;;3.07;;
19747;SDS011;10032;51.386;12.516;2023-11-22T01:41:09;5.17;;;3.23;;
19747;SDS011;10032;51.386;12.516;2023-11-22T01:43:38;5.27;;;3.60;;
19747;SDS011;10032;51.386;12.516;2023-11-22T01:46:04;6.93;;;3.33;;
19747;SDS011;10032;51.386;12.516;2023-11-22T01:48:30;5.10;;;3.57;;
19747;SDS011;10032;51.386;12.516;2023-11-22T01:50:57;4.63;;;4.23;;
19747;SDS011;10032;51.386;12.516;2023-11-22T01:53:22;6.00;;;3.20;;
19747;SDS011;10032;51.386;12.516;2023-11-22T01:55:49;5.50;;;3.20;;
19747;SDS011;10032;51.386;12.516;2023-11-22T01:58:15;4.97;;;3.30;;
19747;SDS011;10032;51.386;12.516;2023-11-22T02:00:42;4.73;;;3.30;;
19747;SDS011;10032;51.386;12.516;2023-11-22T02:03:10;6.37;;;3.67;;
19747;SDS011;10032;51.386;12.516;2023-11-22T02:05:39;6.33;;;3.60;;
19747;SDS011;10032;51.386;12.516;2023-11-22T02:08:07;4.27;;;3.27;;
19747;SDS011;10032;51.386;12.516;2023-11-22T02:10:33;5.70;;;3.17;;
19747;SDS011;10032;51.386;12.516;2023-11-22T02:12:58;4.83;;;3.43;;
19747;SDS011;10032;51.386;12.516;2023-11-22T02:15:24;5.20;;;3.70;;
19747;SDS011;10032;51.386;12.516;2023-11-22T02:17:49;3.77;;;3.30;;
19747;SDS011;10032;51.386;12.516;2023-11-22T02:20:14;5.90;;;3.30;;
19747;SDS011;10032;51.386;12.516;2023-11-22T02:22:46;5.30;;;3.47;;
19747;SDS011;10032;51.386;12.516;2023-11-22T02:25:12;5.07;;;3.27;;
19747;SDS011;10032;51.386;12.516;2023-11-22T02:27:38;6.37;;;3.90;;
19747;SDS011;10032;51.386;12.516;2023-11-22T02:30:05;6.30;;;3.20;;
19747;SDS011;10032;51.386;12.516;2023-11-22T02:32:31;5.17;;;3.60;;
19747;SDS011;10032;51.386;12.516;2023-11-22T02:34:56;4.63;;;3.67;;
19747;SDS011;10032;51.386;12.516;2023-11-22T02:37:22;3.50;;;3.20;;
19747;SDS011;10032;51.386;12.516;2023-11-22T02:39:51;5.43;;;3.97;;
19747;SDS011;10032;51.386;12.516;2023-11-22T02:42:25;6.60;;;4.30;;
19747;SDS011;10032;51.386;12.516;2023-11-22T02:44:50;4.77;;;3.83;;
19747;SDS011;10032;51.386;12.516;2023-11-22T02:47:16;4.57;;;3.77;;
19747;SDS011;10032;51.386;12.516;2023-11-22T02:49:41;4.33;;;3.03;;
19747;SDS011;10032;51.386;12.516;2023-11-22T02:52:07;4.27;;;3.43;;
19747;SDS011;10032;51.386;12.516;2023-11-22T02:54:32;4.73;;;3.63;;
19747;SDS011;10032;51.386;12.516;2023-11-22T02:56:59;5.00;;;3.63;;
19747;SDS011;10032;51.386;12.516;2023-11-22T02:59:25;4.60;;;3.53;;
19747;SDS011;10032;51.386;12.516;2023-11-22T03:01:51;3.40;;;2.93;;
19747;SDS011;10032;51.386;12.516;2023-11-22T03:04:16;4.10;;;3.53;;
19747;SDS011;10032;51.386;12.516;2023-11-22T03:06:42;6.27;;;4.17;;
19747;SDS011;10032;51.386;12.516;2023-11-22T03:09:07;5.07;;;3.63;;
19747;SDS011;10032;51.386;12.516;2023-11-22T03:11:33;6.80;;;3.33;;
19747;SDS011;10032;51.386;12.516;2023-11-22T03:13:58;5.60;;;3.70;;
19747;SDS011;10032;51.386;12.516;2023-11-22T03:16:24;6.67;;;3.40;;
19747;SDS011;10032;51.386;12.516;2023-11-22T03:18:49;5.63;;;4.00;;
19747;SDS011;10032;51.386;12.516;2023-11-22T03:21:16;6.03;;;4.13;;
19747;SDS011;10032;51.386;12.516;2023-11-22T03:23:42;5.90;;;4.27;;
19747;SDS011;10032;51.386;12.516;2023-11-22T03:26:07;4.93;;;3.00;;
19747;SDS011;10032;51.386;12.516;2023-11-22T03:28:34;4.27;;;3.30;;
19747;SDS011;10032;51.386;12.516;2023-11-22T03:31:00;3.77;;;2.90;;
19747;SDS011;10032;51.386;12.516;2023-11-22T03:33:27;5.17;;;3.27;;
19747;SDS011;10032;51.386;12.516;2023-11-22T03:35:53;6.47;;;3.60;;
19747;SDS011;10032;51.386;12.516;2023-11-22T03:38:18;4.87;;;3.73;;
19747;SDS011;10032;51.386;12.516;2023-11-22T03:40:44;6.57;;;3.63;;
19747;SDS011;10032;51.386;12.516;2023-11-22T03:43:10;4.50;;;3.73;;
19747;SDS011;10032;51.386;12.516;2023-11-22T03:45:36;4.70;;;3.00;;
19747;SDS011;10032;51.386;12.516;2023-11-22T03:48:01;4.47;;;2.60;;
19747;SDS011;10032;51.386;12.516;2023-11-22T03:50:27;5.93;;;3.63;;
19747;SDS011;10032;51.386;12.516;2023-11-22T03:52:52;5.07;;;3.20;;
19747;SDS011;10032;51.386;12.516;2023-11-22T03:55:17;4.80;;;3.23;;
19747;SDS011;10032;51.386;12.516;2023-11-22T03:57:43;4.60;;;3.80;;
19747;SDS011;10032;51.386;12.516;2023-11-22T04:00:09;4.50;;;3.23;;
19747;SDS011;10032;51.386;12.516;2023-11-22T04:02:35;6.20;;;3.60;;
19747;SDS011;10032;51.386;12.516;2023-11-22T04:05:00;5.00;;;3.20;;
19747;SDS011;10032;51.386;12.516;2023-11-22T04:07:26;5.67;;;3.53;;
19747;SDS011;10032;51.386;12.516;2023-11-22T04:09:51;5.07;;;3.77;;
19747;SDS011;10032;51.386;12.516;2023-11-22T04:12:17;5.13;;;3.77;;
19747;SDS011;10032;51.386;12.516;2023-11-22T04:14:42;5.30;;;3.30;;
19747;SDS011;10032;51.386;12.516;2023-11-22T04:17:07;5.73;;;4.37;;
19747;SDS011;10032;51.386;12.516;2023-11-22T04:19:33;5.77;;;3.20;;
19747;SDS011;10032;51.386;12.516;2023-11-22T04:21:58;5.47;;;3.70;;
19747;SDS011;10032;51.386;12.516;2023-11-22T04:24:24;5.37;;;3.53;;
19747;SDS011;10032;51.386;12.516;2023-11-22T04:26:49;5.73;;;4.10;;
19747;SDS011;10032;51.386;12.516;2023-11-22T04:29:15;5.63;;;3.83;;
19747;SDS011;10032;51.386;12.516;2023-11-22T04:31:41;6.47;;;3.67;;
19747;SDS011;10032;51.386;12.516;2023-11-22T04:34:06;5.37;;;3.53;;
19747;SDS011;10032;51.386;12.516;2023-11-22T04:36:32;6.00;;;3.37;;
19747;SDS011;10032;51.386;12.516;2023-11-22T04:38:57;7.20;;;3.83;;
19747;SDS011;10032;51.386;12.516;2023-11-22T04:41:23;4.00;;;3.20;;
19747;SDS011;10032;51.386;12.516;2023-11-22T04:43:50;5.90;;;3.47;;
19747;SDS011;10032;51.386;12.516;2023-11-22T04:46:15;9.30;;;3.67;;
19747;SDS011;10032;51.386;12.516;2023-11-22T04:48:41;4.43;;;3.43;;
19747;SDS011;10032;51.386;12.516;2023-11-22T04:51:09;4.00;;;3.40;;
19747;SDS011;10032;51.386;12.516;2023-11-22T04:53:35;4.90;;;3.30;;
19747;SDS011;10032;51.386;12.516;2023-11-22T04:56:01;3.83;;;3.43;;
19747;SDS011;10032;51.386;12.516;2023-11-22T04:58:30;5.30;;;3.90;;
19747;SDS011;10032;51.386;12.516;2023-11-22T05:00:56;7.10;;;3.57;;
19747;SDS011;10032;51.386;12.516;2023-11-22T05:03:22;5.00;;;3.73;;
19747;SDS011;10032;51.386;12.516;2023-11-22T05:05:48;3.93;;;3.53;;
19747;SDS011;10032;51.386;12.516;2023-11-22T05:08:14;3.77;;;2.60;;
19747;SDS011;10032;51.386;12.516;2023-11-22T05:10:39;4.50;;;3.57;;
19747;SDS011;10032;51.386;12.516;2023-11-22T05:13:05;4.47;;;3.43;;
19747;SDS011;10032;51.386;12.516;2023-11-22T05:15:31;5.60;;;4.33;;
19747;SDS011;10032;51.386;12.516;2023-11-22T05:17:56;5.77;;;3.50;;
19747;SDS011;10032;51.386;12.516;2023-11-22T05:20:22;4.00;;;3.20;;
19747;SDS011;10032;51.386;12.516;2023-11-22T05:22:47;6.60;;;3.20;;
19747;SDS011;10032;51.386;12.516;2023-11-22T05:25:12;4.90;;;3.70;;
19747;SDS011;10032;51.386;12.516;2023-11-22T05:27:38;5.73;;;3.87;;
19747;SDS011;10032;51.386;12.516;2023-11-22T05:30:03;5.77;;;3.77;;
19747;SDS011;10032;51.386;12.516;2023-11-22T05:32:29;6.03;;;3.37;;
19747;SDS011;10032;51.386;12.516;2023-11-22T05:34:56;4.50;;;3.23;;
19747;SDS011;10032;51.386;12.516;2023-11-22T05:37:21;3.90;;;3.20;;
19747;SDS011;10032;51.386;12.516;2023-11-22T05:39:47;6.10;;;3.87;;
19747;SDS011;10032;51.386;12.516;2023-11-22T05:42:12;5.27;;;3.63;;
19747;SDS011;10032;51.386;12.516;2023-11-22T05:44:38;4.70;;;3.40;;
19747;SDS011;10032;51.386;12.516;2023-11-22T05:47:03;6.00;;;3.87;;
19747;SDS011;10032;51.386;12.516;2023-11-22T05:49:29;4.07;;;3.57;;
19747;SDS011;10032;51.386;12.516;2023-11-22T05:51:54;4.27;;;3.43;;
19747;SDS011;10032;51.386;12.516;2023-11-22T05:54:19;4.83;;;3.30;;
19747;SDS011;10032;51.386;12.516;2023-11-22T05:56:45;4.93;;;3.27;;
19747;SDS011;10032;51.386;12.516;2023-11-22T05:59:10;4.90;;;3.40;;
19747;SDS011;10032;51.386;12.516;2023-11-22T06:01:36;4.90;;;3.37;;
19747;SDS011;10032;51.386;12.516;2023-11-22T06:04:01;3.80;;;3.37;;
19747;SDS011;10032;51.386;12.516;2023-11-22T06:06:27;6.83;;;3.87;;
19747;SDS011;10032;51.386;12.516;2023-11-22T06:08:53;4.40;;;3.23;;
19747;SDS011;10032;51.386;12.516;2023-11-22T06:11:18;3.97;;;2.83;;
19747;SDS011;10032;51.386;12.516;2023-11-22T06:13:44;4.97;;;3.27;;
19747;SDS011;10032;51.386;12.516;2023-11-22T06:16:12;3.93;;;3.53;;
19747;SDS011;10032;51.386;12.516;2023-11-22T06:18:37;7.27;;;5.23;;
19747;SDS011;10032;51.386;12.516;2023-11-22T06:21:08;6.30;;;3.60;;
19747;SDS011;10032;51.386;12.516;2023-11-22T06:23:34;4.77;;;4.13;;
19747;SDS011;10032;51.386;12.516;2023-11-22T06:25:59;5.37;;;3.60;;
19747;SDS011;10032;51.386;12.516;2023-11-22T06:28:24;5.83;;;3.27;;
19747;SDS011;10032;51.386;12.516;2023-11-22T06:30:50;4.03;;;3.60;;
19747;SDS011;10032;51.386;12.516;2023-11-22T06:33:15;5.47;;;3.23;;
19747;SDS011;10032;51.386;12.516;2023-11-22T06:35:41;5.40;;;3.50;;
19747;SDS011;10032;51.386;12.516;2023-11-22T06:38:07;4.30;;;3.37;;
19747;SDS011;10032;51.386;12.516;2023-11-22T06:40:33;4.07;;;2.80;;
19747;SDS011;10032;51.386;12.516;2023-11-22T06:42:58;7.13;;;3.83;;
19747;SDS011;10032;51.386;12.516;2023-11-22T06:45:24;4.90;;;3.87;;
19747;SDS011;10032;51.386;12.516;2023-11-22T06:47:49;5.63;;;3.57;;
19747;SDS011;10032;51.386;12.516;2023-11-22T06:50:15;4.00;;;2.87;;
19747;SDS011;10032;51.386;12.516;2023-11-22T06:52:41;4.97;;;3.63;;
19747;SDS011;10032;51.386;12.516;2023-11-22T06:55:07;8.73;;;4.30;;
19747;SDS011;10032;51.386;12.516;2023-11-22T06:57:33;5.67;;;3.53;;
19747;SDS011;10032;51.386;12.516;2023-11-22T07:00:03;6.47;;;4.33;;
19747;SDS011;10032;51.386;12.516;2023-11-22T07:02:33;6.63;;;3.60;;
19747;SDS011;10032;51.386;12.516;2023-11-22T07:04:59;6.80;;;3.97;;
19747;SDS011;10032;51.386;12.516;2023-11-22T07:07:24;5.10;;;3.57;;
19747;SDS011;10032;51.386;12.516;2023-11-22T07:09:50;6.37;;;3.20;;
19747;SDS011;10032;51.386;12.516;2023-11-22T07:12:15;9.13;;;4.23;;
19747;SDS011;10032;51.386;12.516;2023-11-22T07:14:41;5.10;;;3.80;;
19747;SDS011;10032;51.386;12.516;2023-11-22T07:17:08;5.37;;;3.43;;
19747;SDS011;10032;51.386;12.516;2023-11-22T07:19:34;5.63;;;3.40;;
19747;SDS011;10032;51.386;12.516;2023-11-22T07:22:03;7.13;;;3.90;;
19747;SDS011;10032;51.386;12.516;2023-11-22T07:24:41;6.70;;;5.13;;
19747;SDS011;10032;51.386;12.516;2023-11-22T07:27:10;6.43;;;5.13;;
19747;SDS011;10032;51.386;12.516;2023-11-22T07:29:40;7.20;;;4.50;;
19747;SDS011;10032;51.386;12.516;2023-11-22T07:32:06;4.83;;;3.57;;
19747;SDS011;10032;51.386;12.516;2023-11-22T07:34:33;4.97;;;4.37;;
19747;SDS011;10032;51.386;12.516;2023-11-22T07:36:59;6.83;;;4.53;;
19747;SDS011;10032;51.386;12.516;2023-11-22T07:39:25;6.60;;;4.07;;
19747;SDS011;10032;51.386;12.516;2023-11-22T07:41:52;5.87;;;3.73;;
19747;SDS011;10032;51.386;12.516;2023-11-22T07:44:18;5.63;;;4.27;;
19747;SDS011;10032;51.386;12.516;2023-11-22T07:46:43;6.57;;;3.77;;
19747;SDS011;10032;51.386;12.516;2023-11-22T07:49:09;7.30;;;4.50;;
19747;SDS011;10032;51.386;12.516;2023-11-22T07:51:35;6.47;;;4.43;;
19747;SDS011;10032;51.386;12.516;2023-11-22T07:54:02;7.37;;;4.70;;
19747;SDS011;10032;51.386;12.516;2023-11-22T07:56:27;7.30;;;4.50;;
19747;SDS011;10032;51.386;12.516;2023-11-22T07:58:54;7.97;;;5.20;;
19747;SDS011;10032;51.386;12.516;2023-11-22T08:01:20;6.53;;;4.37;;
19747;SDS011;10032;51.386;12.516;2023-11-22T08:03:45;8.33;;;5.57;;
19747;SDS011;10032;51.386;12.516;2023-11-22T08:06:11;7.20;;;4.30;;
19747;SDS011;10032;51.386;12.516;2023-11-22T08:08:38;6.60;;;4.37;;
19747;SDS011;10032;51.386;12.516;2023-11-22T08:11:05;7.03;;;4.80;;
19747;SDS011;10032;51.386;12.516;2023-11-22T08:13:40;6.37;;;4.83;;
19747;SDS011;10032;51.386;12.516;2023-11-22T08:16:07;19.10;;;5.27;;
19747;SDS011;10032;51.386;12.516;2023-11-22T08:18:33;8.47;;;5.37;;
19747;SDS011;10032;51.386;12.516;2023-11-22T08:21:00;6.67;;;4.87;;
19747;SDS011;10032;51.386;12.516;2023-11-22T08:23:25;7.67;;;4.70;;
19747;SDS011;10032;51.386;12.516;2023-11-22T08:25:51;6.23;;;4.10;;
19747;SDS011;10032;51.386;12.516;2023-11-22T08:28:18;7.90;;;4.70;;
19747;SDS011;10032;51.386;12.516;2023-11-22T08:30:43;6.77;;;4.17;;
19747;SDS011;10032;51.386;12.516;2023-11-22T08:33:09;10.77;;;5.90;;
19747;SDS011;10032;51.386;12.516;2023-11-22T08:35:35;6.83;;;4.50;;
19747;SDS011;10032;51.386;12.516;2023-11-22T08:38:01;9.73;;;5.23;;
19747;SDS011;10032;51.386;12.516;2023-11-22T08:40:28;7.13;;;4.53;;
19747;SDS011;10032;51.386;12.516;2023-11-22T08:42:54;10.37;;;5.43;;
19747;SDS011;10032;51.386;12.516;2023-11-22T08:45:19;7.67;;;5.50;;
19747;SDS011;10032;51.386;12.516;2023-11-22T08:47:45;11.20;;;5.67;;
19747;SDS011;10032;51.386;12.516;2023-11-22T08:50:11;6.27;;;4.27;;
19747;SDS011;10032;51.386;12.516;2023-11-22T08:52:39;8.53;;;5.40;;
19747;SDS011;10032;51.386;12.516;2023-11-22T08:55:06;8.40;;;6.17;;
19747;SDS011;10032;51.386;12.516;2023-11-22T08:57:35;7.53;;;5.27;;
19747;SDS011;10032;51.386;12.516;2023-11-22T09:00:01;6.80;;;4.67;;
19747;SDS011;10032;51.386;12.516;2023-11-22T09:02:31;7.20;;;4.90;;
19747;SDS011;10032;51.386;12.516;2023-11-22T09:04:58;8.67;;;5.60;;
19747;SDS011;10032;51.386;12.516;2023-11-22T09:07:23;9.33;;;5.83;;
19747;SDS011;10032;51.386;12.516;2023-11-22T09:09:49;5.97;;;4.90;;
19747;SDS011;10032;51.386;12.516;2023-11-22T09:12:16;17.33;;;10.43;;
19747;SDS011;10032;51.386;12.516;2023-11-22T09:14:44;15.10;;;9.93;;
19747;SDS011;10032;51.386;12.516;2023-11-22T09:17:10;10.73;;;6.53;;
19747;SDS011;10032;51.386;12.516;2023-11-22T09:19:36;11.10;;;7.77;;
19747;SDS011;10032;51.386;12.516;2023-11-22T09:22:02;7.37;;;5.37;;
19747;SDS011;10032;51.386;12.516;2023-11-22T09:24:28;7.13;;;4.67;;
19747;SDS011;10032;51.386;12.516;2023-11-22T09:26:53;10.30;;;5.53;;
19747;SDS011;10032;51.386;12.516;2023-11-22T09:29:19;5.93;;;4.53;;
19747;SDS011;10032;51.386;12.516;2023-11-22T09:31:44;6.57;;;4.60;;
19747;SDS011;10032;51.386;12.516;2023-11-22T09:34:12;6.73;;;5.07;;
19747;SDS011;10032;51.386;12.516;2023-11-22T09:36:38;14.57;;;8.70;;
19747;SDS011;10032;51.386;12.516;2023-11-22T09:39:04;10.23;;;5.17;;
19747;SDS011;10032;51.386;12.516;2023-11-22T09:41:34;7.83;;;5.40;;
19747;SDS011;10032;51.386;12.516;2023-11-22T09:44:00;10.43;;;7.10;;
19747;SDS011;10032;51.386;12.516;2023-11-22T09:46:26;10.70;;;7.90;;
19747;SDS011;10032;51.386;12.516;2023-11-22T09:48:52;9.97;;;5.83;;
19747;SDS011;10032;51.386;12.516;2023-11-22T09:51:22;14.13;;;8.17;;
19747;SDS011;10032;51.386;12.516;2023-11-22T09:53:56;9.33;;;6.33;;
19747;SDS011;10032;51.386;12.516;2023-11-22T09:56:24;8.10;;;5.37;;
19747;SDS011;10032;51.386;12.516;2023-11-22T09:58:53;11.40;;;7.30;;
19747;SDS011;10032;51.386;12.516;2023-11-22T10:01:21;8.43;;;5.50;;
19747;SDS011;10032;51.386;12.516;2023-11-22T10:03:47;11.37;;;5.53;;
19747;SDS011;10032;51.386;12.516;2023-11-22T10:06:13;8.27;;;5.60;;
19747;SDS011;10032;51.386;12.516;2023-11-22T10:08:40;9.37;;;6.23;;
19747;SDS011;10032;51.386;12.516;2023-11-22T10:11:06;10.60;;;6.37;;
19747;SDS011;10032;51.386;12.516;2023-11-22T10:13:32;10.00;;;6.93;;
19747;SDS011;10032;51.386;12.516;2023-11-22T10:16:08;13.07;;;6.33;;
19747;SDS011;10032;51.386;12.516;2023-11-22T10:18:38;10.10;;;6.60;;
19747;SDS011;10032;51.386;12.516;2023-11-22T10:21:15;14.10;;;10.33;;
19747;SDS011;10032;51.386;12.516;2023-11-22T10:23:44;11.80;;;9.90;;
19747;SDS011;10032;51.386;12.516;2023-11-22T10:26:09;8.10;;;5.93;;
19747;SDS011;10032;51.386;12.516;2023-11-22T10:28:34;7.37;;;5.10;;
19747;SDS011;10032;51.386;12.516;2023-11-22T10:31:00;8.27;;;4.33;;
19747;SDS011;10032;51.386;12.516;2023-11-22T10:33:25;9.53;;;5.60;;
19747;SDS011;10032;51.386;12.516;2023-11-22T10:35:51;8.97;;;5.43;;
19747;SDS011;10032;51.386;12.516;2023-11-22T10:38:18;7.50;;;5.27;;
19747;SDS011;10032;51.386;12.516;2023-11-22T10:40:44;7.87;;;5.13;;
19747;SDS011;10032;51.386;12.516;2023-11-22T10:43:16;6.97;;;4.87;;
19747;SDS011;10032;51.386;12.516;2023-11-22T10:45:43;7.77;;;5.13;;
19747;SDS011;10032;51.386;12.516;2023-11-22T10:48:13;6.73;;;4.80;;
19747;SDS011;10032;51.386;12.516;2023-11-22T10:50:43;7.37;;;5.10;;
19747;SDS011;10032;51.386;12.516;2023-11-22T10:53:11;7.83;;;5.10;;
19747;SDS011;10032;51.386;12.516;2023-11-22T10:55:46;10.23;;;6.13;;
19747;SDS011;10032;51.386;12.516;2023-11-22T10:58:14;9.10;;;5.63;;
19747;SDS011;10032;51.386;12.516;2023-11-22T11:00:41;9.57;;;6.83;;
19747;SDS011;10032;51.386;12.516;2023-11-22T11:03:16;8.77;;;5.43;;
19747;SDS011;10032;51.386;12.516;2023-11-22T11:05:50;10.63;;;6.47;;
19747;SDS011;10032;51.386;12.516;2023-11-22T11:08:20;8.97;;;5.73;;
19747;SDS011;10032;51.386;12.516;2023-11-22T11:10:49;8.50;;;5.50;;
19747;SDS011;10032;51.386;12.516;2023-11-22T11:13:15;10.90;;;7.53;;
19747;SDS011;10032;51.386;12.516;2023-11-22T11:15:41;7.67;;;5.63;;
19747;SDS011;10032;51.386;12.516;2023-11-22T11:18:13;9.63;;;5.20;;
19747;SDS011;10032;51.386;12.516;2023-11-22T11:20:46;6.93;;;5.03;;
19747;SDS011;10032;51.386;12.516;2023-11-22T11:23:26;8.10;;;4.60;;
19747;SDS011;10032;51.386;12.516;2023-11-22T11:25:53;7.87;;;5.57;;
19747;SDS011;10032;51.386;12.516;2023-11-22T11:28:20;8.67;;;5.60;;
19747;SDS011;10032;51.386;12.516;2023-11-22T11:30:47;6.40;;;4.50;;
19747;SDS011;10032;51.386;12.516;2023-11-22T11:33:14;11.10;;;7.03;;
19747;SDS011;10032;51.386;12.516;2023-11-22T11:38:11;8.03;;;5.47;;
19747;SDS011;10032;51.386;12.516;2023-11-22T11:40:42;6.63;;;4.70;;
19747;SDS011;10032;51.386;12.516;2023-11-22T11:43:09;8.67;;;4.97;;
19747;SDS011;10032;51.386;12.516;2023-11-22T11:45:36;7.40;;;5.30;;
19747;SDS011;10032;51.386;12.516;2023-11-22T11:48:04;10.17;;;5.37;;
19747;SDS011;10032;51.386;12.516;2023-11-22T11:50:30;6.77;;;4.97;;
19747;SDS011;10032;51.386;12.516;2023-11-22T11:52:56;7.57;;;5.03;;
19747;SDS011;10032;51.386;12.516;2023-11-22T11:55:21;6.77;;;4.80;;
19747;SDS011;10032;51.386;12.516;2023-11-22T11:57:47;6.33;;;4.77;;
19747;SDS011;10032;51.386;12.516;2023-11-22T12:00:13;7.87;;;5.40;;
19747;SDS011;10032;51.386;12.516;2023-11-22T12:02:39;6.40;;;4.50;;
19747;SDS011;10032;51.386;12.516;2023-11-22T12:05:05;8.37;;;5.00;;
19747;SDS011;10032;51.386;12.516;2023-11-22T12:07:36;8.03;;;5.43;;
19747;SDS011;10032;51.386;12.516;2023-11-22T12:10:03;14.10;;;10.93;;
19747;SDS011;10032;51.386;12.516;2023-11-22T12:12:31;8.37;;;5.60;;
19747;SDS011;10032;51.386;12.516;2023-11-22T12:14:57;7.67;;;4.60;;
19747;SDS011;10032;51.386;12.516;2023-11-22T12:17:22;8.13;;;5.33;;
19747;SDS011;10032;51.386;12.516;2023-11-22T12:19:48;7.13;;;4.53;;
19747;SDS011;10032;51.386;12.516;2023-11-22T12:22:14;7.93;;;4.67;;
19747;SDS011;10032;51.386;12.516;2023-11-22T12:24:41;9.20;;;6.33;;
19747;SDS011;10032;51.386;12.516;2023-11-22T12:27:11;9.90;;;5.30;;
19747;SDS011;10032;51.386;12.516;2023-11-22T12:29:37;7.73;;;4.43;;
19747;SDS011;10032;51.386;12.516;2023-11-22T12:32:04;5.67;;;4.43;;
19747;SDS011;10032;51.386;12.516;2023-11-22T12:34:30;7.73;;;4.70;;
19747;SDS011;10032;51.386;12.516;2023-11-22T12:36:58;7.23;;;5.13;;
19747;SDS011;10032;51.386;12.516;2023-11-22T12:39:24;9.13;;;6.13;;
19747;SDS011;10032;51.386;12.516;2023-11-22T12:41:51;8.20;;;4.93;;
19747;SDS011;10032;51.386;12.516;2023-11-22T12:44:17;5.97;;;4.37;;
19747;SDS011;10032;51.386;12.516;2023-11-22T12:46:50;6.40;;;4.47;;
19747;SDS011;10032;51.386;12.516;2023-11-22T12:49:22;8.10;;;5.57;;
19747;SDS011;10032;51.386;12.516;2023-11-22T12:51:48;6.00;;;4.50;;
19747;SDS011;10032;51.386;12.516;2023-11-22T12:54:15;7.07;;;4.80;;
19747;SDS011;10032;51.386;12.516;2023-11-22T12:56:41;8.73;;;5.53;;
19747;SDS011;10032;51.386;12.516;2023-11-22T12:59:07;7.03;;;4.83;;
19747;SDS011;10032;51.386;12.516;2023-11-22T13:01:33;8.37;;;5.50;;
19747;SDS011;10032;51.386;12.516;2023-11-22T13:04:00;6.30;;;5.03;;
19747;SDS011;10032;51.386;12.516;2023-11-22T13:06:25;8.67;;;5.03;;
19747;SDS011;10032;51.386;12.516;2023-11-22T13:08:51;6.60;;;4.70;;
19747;SDS011;10032;51.386;12.516;2023-11-22T13:11:18;7.43;;;4.93;;
19747;SDS011;10032;51.386;12.516;2023-11-22T13:13:44;7.73;;;4.83;;
19747;SDS011;10032;51.386;12.516;2023-11-22T13:16:11;8.00;;;5.67;;
19747;SDS011;10032;51.386;12.516;2023-11-22T13:18:38;6.40;;;4.47;;
19747;SDS011;10032;51.386;12.516;2023-11-22T13:21:04;7.27;;;5.03;;
19747;SDS011;10032;51.386;12.516;2023-11-22T13:23:30;6.77;;;4.50;;
19747;SDS011;10032;51.386;12.516;2023-11-22T13:25:55;5.37;;;3.93;;
19747;SDS011;10032;51.386;12.516;2023-11-22T13:28:21;7.37;;;5.13;;
19747;SDS011;10032;51.386;12.516;2023-11-22T13:30:48;13.13;;;7.87;;
19747;SDS011;10032;51.386;12.516;2023-11-22T13:33:14;8.20;;;5.37;;
19747;SDS011;10032;51.386;12.516;2023-11-22T13:35:39;8.87;;;6.50;;
19747;SDS011;10032;51.386;12.516;2023-11-22T13:38:05;8.93;;;6.23;;
19747;SDS011;10032;51.386;12.516;2023-11-22T13:40:35;9.03;;;5.40;;
19747;SDS011;10032;51.386;12.516;2023-11-22T13:43:04;7.87;;;5.17;;
19747;SDS011;10032;51.386;12.516;2023-11-22T13:45:30;8.17;;;5.80;;
19747;SDS011;10032;51.386;12.516;2023-11-22T13:47:55;7.17;;;4.37;;
19747;SDS011;10032;51.386;12.516;2023-11-22T13:50:31;7.73;;;4.87;;
19747;SDS011;10032;51.386;12.516;2023-11-22T13:53:01;9.93;;;5.67;;
19747;SDS011;10032;51.386;12.516;2023-11-22T13:55:28;7.90;;;5.23;;
19747;SDS011;10032;51.386;12.516;2023-11-22T13:57:55;9.20;;;6.80;;
19747;SDS011;10032;51.386;12.516;2023-11-22T14:00:24;6.97;;;4.73;;
19747;SDS011;10032;51.386;12.516;2023-11-22T14:02:55;9.20;;;5.13;;
19747;SDS011;10032;51.386;12.516;2023-11-22T14:05:22;7.23;;;4.67;;
19747;SDS011;10032;51.386;12.516;2023-11-22T14:07:51;7.07;;;5.20;;
19747;SDS011;10032;51.386;12.516;2023-11-22T14:10:19;7.83;;;5.30;;
19747;SDS011;10032;51.386;12.516;2023-11-22T14:12:47;7.93;;;5.40;;
19747;SDS011;10032;51.386;12.516;2023-11-22T14:15:16;7.10;;;4.53;;
19747;SDS011;10032;51.386;12.516;2023-11-22T14:17:41;5.80;;;4.40;;
19747;SDS011;10032;51.386;12.516;2023-11-22T14:20:13;5.90;;;5.30;;
19747;SDS011;10032;51.386;12.516;2023-11-22T14:22:39;5.10;;;4.60;;
19747;SDS011;10032;51.386;12.516;2023-11-22T14:25:08;8.63;;;5.17;;
19747;SDS011;10032;51.386;12.516;2023-11-22T14:27:42;7.70;;;4.60;;
19747;SDS011;10032;51.386;12.516;2023-11-22T14:30:09;7.37;;;5.40;;
19747;SDS011;10032;51.386;12.516;2023-11-22T14:32:38;8.17;;;4.97;;